Time;durP1;ratioP1;P1;durP2;ratioP2;P2;SDS_P1;SDS_P2;PMS_P1;PMS_P2;Temp;Humidity;BMP_temperature;BMP_pressure;BME280_temperature;BME280_humidity;BME280_pressure;Samples;Min_cycle;Max_cycle;Signal;HPM_P1;HPM_P2
2021/04/14 00:01:08;;;;;;;1.10;0.70;;;22.60;29.50;;;;;;5037605;28;20387;-65
2021/04/14 00:03:34;;;;;;;1.30;0.90;;;22.60;29.50;;;;;;5037594;28;20394;-64
2021/04/14 00:06:00;;;;;;;1.60;0.93;;;22.50;29.40;;;;;;5037518;28;20387;-65
2021/04/14 00:08:30;;;;;;;1.10;0.70;;;22.50;29.40;;;;;;5037314;28;20410;-64
2021/04/14 00:10:56;;;;;;;1.17;0.70;;;22.50;29.50;;;;;;5037272;28;20735;-65
2021/04/14 00:13:25;;;;;;;1.20;0.80;;;22.50;29.50;;;;;;5037570;28;20469;-65
2021/04/14 00:15:55;;;;;;;1.10;0.70;;;22.50;29.50;;;;;;5037486;28;20395;-64
2021/04/14 00:18:21;;;;;;;1.07;0.70;;;22.50;29.50;;;;;;5037322;28;20972;-65
2021/04/14 00:20:47;;;;;;;1.20;0.80;;;22.40;29.50;;;;;;5036996;28;20390;-65
2021/04/14 00:23:14;;;;;;;1.30;0.90;;;22.40;29.50;;;;;;5037308;28;20473;-65
2021/04/14 00:25:43;;;;;;;1.25;0.90;;;22.40;29.50;;;;;;5037384;28;20387;-65
2021/04/14 00:28:14;;;;;;;1.20;0.70;;;22.40;29.50;;;;;;5037347;28;20434;-65
2021/04/14 00:30:41;;;;;;;1.10;0.70;;;22.30;29.50;;;;;;5036924;28;20449;-64
2021/04/14 00:33:06;;;;;;;1.10;0.70;;;22.30;29.50;;;;;;5036398;28;20467;-64
2021/04/14 00:35:32;;;;;;;1.20;0.80;;;22.30;29.50;;;;;;5033263;28;20866;-65
2021/04/14 00:37:58;;;;;;;0.90;0.60;;;22.30;29.60;;;;;;5033541;28;20506;-64
2021/04/14 00:40:32;;;;;;;1.13;0.88;;;22.30;29.60;;;;;;5033887;28;20426;-63
2021/04/14 00:43:01;;;;;;;1.50;0.80;;;22.20;29.60;;;;;;5033995;28;20473;-65
2021/04/14 00:45:28;;;;;;;1.30;0.80;;;22.20;29.60;;;;;;5034034;28;20929;-65
2021/04/14 00:47:53;;;;;;;0.70;0.60;;;22.20;29.60;;;;;;5034116;28;20414;-64
2021/04/14 00:50:23;;;;;;;1.20;0.80;;;22.20;29.80;;;;;;5033958;28;20875;-63
2021/04/14 00:52:50;;;;;;;2.10;0.70;;;22.20;29.90;;;;;;5033528;28;20394;-65
2021/04/14 00:55:17;;;;;;;1.50;0.70;;;22.10;29.90;;;;;;5034051;28;20465;-63
2021/04/14 00:57:43;;;;;;;1.30;0.90;;;22.10;29.90;;;;;;5033874;28;20407;-64
2021/04/14 01:00:15;;;;;;;0.80;0.60;;;22.10;29.90;;;;;;5033905;28;20907;-64
2021/04/14 01:02:41;;;;;;;1.10;0.70;;;22.10;29.90;;;;;;5033300;28;20379;-58
2021/04/14 01:05:10;;;;;;;1.00;0.60;;;22.10;29.90;;;;;;5043703;28;20399;-63
2021/04/14 01:07:36;;;;;;;1.20;0.70;;;22.10;29.80;;;;;;5050905;28;20873;-63
2021/04/14 01:10:06;;;;;;;0.80;0.50;;;22.00;29.80;;;;;;5053032;28;20391;-61
2021/04/14 01:12:32;;;;;;;0.80;0.60;;;22.00;29.80;;;;;;5042148;28;20479;-59
2021/04/14 01:14:58;;;;;;;1.05;0.68;;;22.00;29.80;;;;;;5053585;28;20428;-65
2021/04/14 01:17:23;;;;;;;0.90;0.50;;;22.00;29.80;;;;;;5053470;28;20893;-65
2021/04/14 01:19:49;;;;;;;1.10;0.70;;;22.00;29.80;;;;;;5053458;28;20389;-65
2021/04/14 01:22:15;;;;;;;1.00;0.60;;;22.00;29.80;;;;;;5053431;28;20504;-64
2021/04/14 01:24:41;;;;;;;1.17;0.70;;;21.90;29.80;;;;;;5052684;28;20404;-65
2021/04/14 01:27:07;;;;;;;1.23;0.83;;;21.90;29.70;;;;;;5052890;28;20390;-65
2021/04/14 01:29:33;;;;;;;1.20;0.60;;;21.90;29.80;;;;;;5052993;28;20444;-64
2021/04/14 01:31:58;;;;;;;0.90;0.70;;;21.90;29.80;;;;;;5053225;28;20886;-64
2021/04/14 01:34:24;;;;;;;1.00;0.60;;;21.80;29.80;;;;;;5053122;28;20421;-65
2021/04/14 01:36:50;;;;;;;0.95;0.70;;;21.80;29.80;;;;;;5052600;28;20421;-65
2021/04/14 01:39:16;;;;;;;0.90;0.60;;;21.80;29.80;;;;;;5052926;28;20456;-64
2021/04/14 01:41:43;;;;;;;1.00;0.55;;;21.80;29.70;;;;;;5052981;28;20381;-65
2021/04/14 01:44:10;;;;;;;1.02;0.70;;;21.80;29.80;;;;;;5053060;28;20393;-64
2021/04/14 01:46:37;;;;;;;1.20;0.73;;;21.80;29.80;;;;;;5051833;28;20762;-64
2021/04/14 01:49:04;;;;;;;0.90;0.60;;;21.80;29.80;;;;;;5052872;28;20483;-60
2021/04/14 01:51:29;;;;;;;0.98;0.80;;;21.70;29.80;;;;;;5053003;28;20449;-65
2021/04/14 01:53:55;;;;;;;1.07;0.70;;;21.70;29.70;;;;;;5052860;28;20873;-65
2021/04/14 01:56:21;;;;;;;1.30;0.70;;;21.70;29.80;;;;;;5052727;28;20416;-65
2021/04/14 01:58:47;;;;;;;1.20;0.80;;;21.70;29.80;;;;;;5051132;28;20431;-65
2021/04/14 02:01:15;;;;;;;0.90;0.70;;;21.70;29.70;;;;;;5052651;28;20476;-65
2021/04/14 02:03:41;;;;;;;1.08;0.70;;;21.70;29.80;;;;;;5052625;28;20401;-64
2021/04/14 02:06:10;;;;;;;1.30;0.65;;;21.70;29.70;;;;;;5052533;28;20472;-65
2021/04/14 02:08:36;;;;;;;0.95;0.70;;;21.60;29.70;;;;;;5052107;28;20527;-63
2021/04/14 02:11:04;;;;;;;0.90;0.50;;;21.60;29.80;;;;;;5052374;28;20472;-65
2021/04/14 02:13:32;;;;;;;0.90;0.65;;;21.60;29.80;;;;;;5052383;28;20389;-65
2021/04/14 02:15:58;;;;;;;1.27;0.90;;;21.60;29.80;;;;;;5052450;28;20381;-65
2021/04/14 02:18:25;;;;;;;0.90;0.68;;;21.60;29.80;;;;;;5052216;28;20416;-64
2021/04/14 02:20:51;;;;;;;1.08;0.68;;;21.60;29.80;;;;;;5051905;28;20385;-63
2021/04/14 02:23:24;;;;;;;1.00;0.68;;;21.60;29.80;;;;;;5052210;28;20393;-64
2021/04/14 02:25:49;;;;;;;1.00;0.60;;;21.60;29.80;;;;;;5052226;28;20382;-64
2021/04/14 02:28:16;;;;;;;0.70;0.50;;;21.60;29.90;;;;;;5052109;28;20484;-63
2021/04/14 02:30:42;;;;;;;0.80;0.50;;;21.50;29.80;;;;;;5051611;28;20382;-64
2021/04/14 02:33:10;;;;;;;1.10;0.70;;;21.50;29.80;;;;;;5052024;28;20389;-64
2021/04/14 02:35:36;;;;;;;1.00;0.60;;;21.50;29.70;;;;;;5051996;28;20393;-64
2021/04/14 02:38:03;;;;;;;0.90;0.60;;;21.50;29.80;;;;;;5051922;28;20486;-64
2021/04/14 02:40:30;;;;;;;0.77;0.52;;;21.40;29.80;;;;;;5051766;28;20435;-65
2021/04/14 02:42:56;;;;;;;1.13;0.70;;;21.50;29.90;;;;;;5050995;28;20810;-65
2021/04/14 02:45:26;;;;;;;0.90;0.70;;;21.40;29.80;;;;;;5051537;28;20404;-65
2021/04/14 02:47:51;;;;;;;1.30;0.80;;;21.40;29.80;;;;;;5051866;28;20405;-64
2021/04/14 02:50:18;;;;;;;0.80;0.60;;;21.40;29.80;;;;;;5051658;28;20385;-64
2021/04/14 02:52:44;;;;;;;0.90;0.60;;;21.40;29.90;;;;;;5051249;28;20758;-63
2021/04/14 02:55:13;;;;;;;0.90;0.60;;;21.40;29.90;;;;;;5050804;28;20470;-64
2021/04/14 02:57:38;;;;;;;1.20;0.63;;;21.40;29.90;;;;;;5051096;28;20397;-65
2021/04/14 03:00:07;;;;;;;0.87;0.60;;;21.40;29.90;;;;;;5051410;28;20389;-63
2021/04/14 03:02:34;;;;;;;1.20;0.60;;;21.40;29.80;;;;;;5051330;28;20377;-64
2021/04/14 03:04:59;;;;;;;0.70;0.40;;;21.40;29.90;;;;;;5051393;28;20397;-65
2021/04/14 03:07:25;;;;;;;0.70;0.50;;;21.40;29.90;;;;;;5051295;28;20377;-64
2021/04/14 03:09:51;;;;;;;1.42;0.52;;;21.30;29.80;;;;;;5051570;28;20449;-64
2021/04/14 03:12:17;;;;;;;0.93;0.63;;;21.30;30.00;;;;;;5051227;28;20408;-64
2021/04/14 03:14:43;;;;;;;1.50;0.60;;;21.30;30.00;;;;;;5050998;28;20382;-63
2021/04/14 03:17:09;;;;;;;1.03;0.70;;;21.30;30.10;;;;;;5051404;28;20421;-66
2021/04/14 03:19:35;;;;;;;1.00;0.60;;;21.30;30.20;;;;;;5051383;28;20447;-64
2021/04/14 03:22:00;;;;;;;2.30;0.77;;;21.30;30.20;;;;;;5051410;28;20417;-65
2021/04/14 03:24:26;;;;;;;2.05;0.60;;;21.30;30.60;;;;;;5051277;28;20476;-64
2021/04/14 03:26:52;;;;;;;1.67;0.70;;;21.30;30.90;;;;;;5049535;28;20401;-64
2021/04/14 03:29:18;;;;;;;1.53;0.57;;;21.30;30.80;;;;;;5051259;28;20397;-65
2021/04/14 03:31:43;;;;;;;1.20;0.60;;;21.30;31.00;;;;;;5051284;28;20401;-63
2021/04/14 03:34:09;;;;;;;1.33;0.70;;;21.30;31.40;;;;;;5051287;28;20489;-62
2021/04/14 03:36:34;;;;;;;1.60;0.70;;;21.30;31.50;;;;;;5051002;28;20546;-65
2021/04/14 03:39:00;;;;;;;1.23;0.73;;;21.30;30.90;;;;;;5049695;28;20409;-65
2021/04/14 03:41:28;;;;;;;1.65;0.70;;;21.30;31.10;;;;;;5051261;28;20373;-60
2021/04/14 03:43:54;;;;;;;1.70;0.80;;;21.30;31.20;;;;;;5051195;28;20389;-63
2021/04/14 03:46:24;;;;;;;1.30;0.60;;;21.30;31.10;;;;;;5050958;28;20405;-59
2021/04/14 03:48:49;;;;;;;2.30;0.80;;;21.30;31.20;;;;;;5050624;28;20398;-64
2021/04/14 03:51:16;;;;;;;2.10;0.80;;;21.30;31.30;;;;;;5050991;28;20424;-64
2021/04/14 03:53:42;;;;;;;1.50;0.60;;;21.20;31.00;;;;;;5050444;28;20382;-62
2021/04/14 03:56:14;;;;;;;1.27;0.60;;;21.20;31.20;;;;;;5051016;28;20480;-65
2021/04/14 03:58:43;;;;;;;1.10;0.70;;;21.20;31.00;;;;;;5050753;28;20405;-64
2021/04/14 04:01:13;;;;;;;2.47;0.82;;;21.20;31.50;;;;;;5049683;28;20382;-64
2021/04/14 04:03:39;;;;;;;2.08;0.80;;;21.20;31.40;;;;;;5049682;28;20398;-64
2021/04/14 04:06:06;;;;;;;1.98;0.80;;;21.20;32.20;;;;;;5049695;28;20476;-64
2021/04/14 04:08:32;;;;;;;3.45;0.90;;;21.20;32.00;;;;;;5050761;28;20480;-64
2021/04/14 04:10:57;;;;;;;1.77;0.77;;;21.20;32.00;;;;;;5053556;28;20473;-65
2021/04/14 04:13:23;;;;;;;1.88;0.60;;;21.10;31.50;;;;;;5054773;28;20401;-65
2021/04/14 04:15:49;;;;;;;2.63;0.90;;;21.10;31.40;;;;;;5054388;28;20381;-64
2021/04/14 04:18:15;;;;;;;1.23;0.65;;;21.10;31.30;;;;;;5054414;28;20429;-65
2021/04/14 04:20:41;;;;;;;1.60;0.80;;;21.10;31.20;;;;;;5054307;28;20734;-65
2021/04/14 04:23:08;;;;;;;2.17;1.13;;;21.10;31.00;;;;;;5054310;28;20396;-65
2021/04/14 04:25:34;;;;;;;3.03;0.82;;;21.10;30.80;;;;;;5054462;28;20382;-66
2021/04/14 04:28:00;;;;;;;3.08;0.90;;;21.10;30.70;;;;;;5054422;28;20385;-66
2021/04/14 04:30:27;;;;;;;1.88;0.70;;;21.10;30.80;;;;;;5050703;28;20449;-64
2021/04/14 04:32:53;;;;;;;1.90;0.60;;;21.10;30.70;;;;;;5045593;28;20397;-65
2021/04/14 04:35:20;;;;;;;3.00;0.90;;;21.10;30.80;;;;;;5052938;28;20398;-65
2021/04/14 04:37:46;;;;;;;4.80;0.85;;;21.00;31.00;;;;;;5054354;28;20532;-65
2021/04/14 04:40:13;;;;;;;2.50;0.90;;;21.00;30.90;;;;;;5054133;28;20395;-65
2021/04/14 04:42:39;;;;;;;2.08;0.80;;;21.00;31.20;;;;;;5054038;28;20465;-65
2021/04/14 04:45:07;;;;;;;1.80;0.80;;;21.00;31.40;;;;;;5053300;28;20483;-65
2021/04/14 04:47:33;;;;;;;2.28;1.00;;;21.00;31.40;;;;;;5048865;28;20447;-63
2021/04/14 04:49:59;;;;;;;2.53;1.10;;;21.00;31.70;;;;;;5054097;28;20385;-64
2021/04/14 04:52:25;;;;;;;2.90;0.68;;;21.00;31.80;;;;;;5053941;28;20421;-65
2021/04/14 04:54:50;;;;;;;2.55;0.93;;;21.00;31.90;;;;;;5053356;28;20382;-65
2021/04/14 04:57:16;;;;;;;2.93;0.87;;;21.00;31.20;;;;;;5053617;28;20474;-65
2021/04/14 04:59:42;;;;;;;2.03;0.68;;;21.00;31.80;;;;;;5053691;28;20484;-65
2021/04/14 05:02:08;;;;;;;2.58;0.70;;;21.00;31.80;;;;;;5052484;28;20468;-65
2021/04/14 05:04:33;;;;;;;1.50;0.87;;;21.00;31.60;;;;;;5053624;28;20474;-65
2021/04/14 05:06:59;;;;;;;2.72;0.70;;;21.00;31.50;;;;;;5046977;28;20901;-64
2021/04/14 05:09:25;;;;;;;2.63;1.10;;;21.00;31.50;;;;;;5052551;28;20394;-65
2021/04/14 05:11:50;;;;;;;2.92;0.82;;;20.90;31.30;;;;;;5051700;28;20500;-65
2021/04/14 05:14:16;;;;;;;3.42;0.77;;;20.90;31.10;;;;;;5053276;28;20723;-64
2021/04/14 05:16:42;;;;;;;2.33;0.60;;;20.90;31.50;;;;;;5053242;28;20456;-64
2021/04/14 05:19:08;;;;;;;2.85;1.00;;;20.90;31.30;;;;;;5053057;28;20420;-64
2021/04/14 05:21:35;;;;;;;2.72;1.00;;;20.90;31.30;;;;;;5052636;28;20412;-64
2021/04/14 05:24:01;;;;;;;2.00;0.80;;;20.90;31.30;;;;;;5053329;28;20454;-64
2021/04/14 05:26:27;;;;;;;2.22;0.80;;;20.80;31.30;;;;;;5052093;28;20464;-65
2021/04/14 05:28:53;;;;;;;2.47;1.00;;;20.80;31.30;;;;;;5052898;28;20419;-64
2021/04/14 05:31:18;;;;;;;1.47;0.93;;;20.80;31.20;;;;;;5051975;28;20398;-64
2021/04/14 05:33:44;;;;;;;2.20;0.82;;;20.80;31.00;;;;;;5053241;28;20393;-64
2021/04/14 05:36:10;;;;;;;2.20;0.80;;;20.80;31.20;;;;;;5053138;28;20792;-65
2021/04/14 05:38:36;;;;;;;2.70;0.80;;;20.80;31.00;;;;;;5052732;28;20512;-65
2021/04/14 05:41:02;;;;;;;1.42;0.80;;;20.80;31.20;;;;;;5052608;28;20421;-65
2021/04/14 05:43:36;;;;;;;1.92;0.80;;;20.80;31.10;;;;;;5052885;28;20912;-64
2021/04/14 05:46:08;;;;;;;1.90;0.80;;;20.80;31.20;;;;;;5052797;28;20971;-64
2021/04/14 05:48:34;;;;;;;2.10;0.87;;;20.70;31.20;;;;;;5052757;28;20484;-64
2021/04/14 05:51:04;;;;;;;2.45;0.90;;;20.70;31.00;;;;;;5052332;28;20793;-64
2021/04/14 05:53:34;;;;;;;2.00;0.77;;;20.70;31.00;;;;;;5052790;28;20874;-64
2021/04/14 05:56:01;;;;;;;1.55;0.80;;;20.70;31.20;;;;;;5052728;28;20410;-64
2021/04/14 05:58:28;;;;;;;2.50;1.20;;;20.70;31.10;;;;;;5052553;28;20421;-65
2021/04/14 06:00:54;;;;;;;1.80;0.77;;;20.70;31.20;;;;;;5050933;28;20378;-65
2021/04/14 06:03:21;;;;;;;1.10;0.70;;;20.70;31.20;;;;;;5052833;28;20382;-65
2021/04/14 06:05:50;;;;;;;1.88;1.10;;;20.70;31.10;;;;;;5051265;28;20385;-65
2021/04/14 06:08:16;;;;;;;1.83;1.20;;;20.70;31.00;;;;;;5052438;28;20389;-65
2021/04/14 06:10:42;;;;;;;3.37;1.07;;;20.70;31.00;;;;;;5052506;28;20461;-64
2021/04/14 06:13:07;;;;;;;2.10;1.50;;;20.70;31.00;;;;;;5051891;28;20397;-62
2021/04/14 06:15:34;;;;;;;2.00;1.27;;;20.70;31.20;;;;;;5052140;28;20865;-64
2021/04/14 06:18:01;;;;;;;2.58;1.20;;;20.70;31.00;;;;;;5052154;28;20488;-64
2021/04/14 06:20:28;;;;;;;2.72;1.40;;;20.70;31.20;;;;;;5051875;28;20393;-65
2021/04/14 06:22:57;;;;;;;3.00;1.77;;;20.70;31.20;;;;;;5050557;28;20754;-65
2021/04/14 06:25:23;;;;;;;2.35;1.27;;;20.70;31.10;;;;;;5052225;28;20421;-64
2021/04/14 06:27:58;;;;;;;3.72;1.50;;;20.70;31.20;;;;;;5052260;28;20461;-65
2021/04/14 06:30:24;;;;;;;2.65;1.20;;;20.70;31.20;;;;;;5052082;28;20389;-65
2021/04/14 06:32:50;;;;;;;2.92;1.30;;;20.70;31.20;;;;;;5050806;28;20443;-60
2021/04/14 06:35:16;;;;;;;2.92;1.45;;;20.70;31.20;;;;;;5051908;28;20877;-65
2021/04/14 06:37:43;;;;;;;2.47;1.17;;;20.70;31.10;;;;;;5050632;28;20417;-64
2021/04/14 06:43:12;;;;;;;2.22;1.30;;;20.70;31.20;;;;;;5051736;28;20904;-63
2021/04/14 06:45:58;;;;;;;2.00;1.25;;;20.70;31.30;;;;;;5051642;28;20890;-65
2021/04/14 06:49:01;;;;;;;2.00;1.13;;;20.70;31.20;;;;;;5051789;28;20385;-65
2021/04/14 06:52:04;;;;;;;2.50;1.60;;;20.60;31.20;;;;;;5051758;28;20390;-65
2021/04/14 06:54:54;;;;;;;2.10;1.17;;;20.70;31.20;;;;;;5051595;28;20393;-64
2021/04/14 06:57:32;;;;;;;2.13;1.50;;;20.60;31.30;;;;;;5051547;28;20432;-65
2021/04/14 07:00:14;;;;;;;2.45;1.40;;;20.60;31.10;;;;;;5051617;28;20385;-64
2021/04/14 07:03:11;;;;;;;2.58;1.40;;;20.60;31.30;;;;;;5051719;28;20384;-64
2021/04/14 07:05:47;;;;;;;2.40;1.27;;;20.60;31.30;;;;;;5049216;28;20459;-64
2021/04/14 07:08:34;;;;;;;1.88;1.33;;;20.60;31.20;;;;;;5051573;28;20385;-63
2021/04/14 07:11:02;;;;;;;2.00;1.23;;;20.60;31.20;;;;;;5051339;28;20384;-64
2021/04/14 07:13:31;;;;;;;1.80;1.33;;;20.60;31.30;;;;;;5051433;28;20514;-64
2021/04/14 07:16:19;;;;;;;1.95;1.40;;;20.60;31.20;;;;;;5051113;28;20405;-65
2021/04/14 07:18:55;;;;;;;2.05;1.25;;;20.60;31.30;;;;;;5051278;28;20419;-64
2021/04/14 07:21:36;;;;;;;2.42;1.30;;;20.60;31.20;;;;;;5051344;28;20378;-64
2021/04/14 07:24:21;;;;;;;2.03;1.27;;;20.60;31.30;;;;;;5051332;28;20393;-65
2021/04/14 07:27:01;;;;;;;1.97;1.30;;;20.60;31.10;;;;;;5049952;28;21082;-59
2021/04/14 07:29:27;;;;;;;1.80;1.30;;;20.60;31.30;;;;;;5051233;28;20447;-65
2021/04/14 07:32:15;;;;;;;1.80;1.30;;;20.60;31.30;;;;;;5051275;28;20428;-65
2021/04/14 07:34:46;;;;;;;2.33;1.25;;;20.60;31.00;;;;;;5051325;28;20432;-64
2021/04/14 07:37:25;;;;;;;1.67;1.20;;;20.60;31.20;;;;;;5050621;28;20377;-64
2021/04/14 07:39:58;;;;;;;1.85;1.10;;;20.60;31.20;;;;;;5051189;28;20797;-65
2021/04/14 07:42:47;;;;;;;1.88;1.20;;;20.60;31.20;;;;;;5051082;28;20480;-65
2021/04/14 07:45:35;;;;;;;1.70;1.20;;;20.60;31.20;;;;;;5052639;28;20832;-65
2021/04/14 07:48:14;;;;;;;1.50;0.98;;;20.60;31.10;;;;;;5055227;28;20385;-64
2021/04/14 07:50:46;;;;;;;1.87;1.20;;;20.60;31.20;;;;;;5055123;28;20464;-64
2021/04/14 07:53:53;;;;;;;1.65;1.05;;;20.60;31.00;;;;;;5054626;28;20397;-65
2021/04/14 07:56:20;;;;;;;2.30;1.30;;;20.60;30.90;;;;;;5050143;28;20451;-64
2021/04/14 07:58:48;;;;;;;1.60;1.00;;;20.60;31.00;;;;;;5055207;28;20434;-65
2021/04/14 08:01:25;;;;;;;1.50;1.10;;;20.70;31.00;;;;;;5054695;28;20412;-64
2021/04/14 08:03:53;;;;;;;1.53;0.93;;;20.90;30.90;;;;;;5054959;28;21006;-65
2021/04/14 08:06:26;;;;;;;1.60;0.85;;;20.90;30.80;;;;;;5055000;28;20377;-65
2021/04/14 08:08:53;;;;;;;1.55;1.00;;;20.90;30.70;;;;;;5054635;28;20409;-64
2021/04/14 08:11:33;;;;;;;1.30;0.95;;;21.00;30.60;;;;;;5054531;28;20418;-65
2021/04/14 08:14:33;;;;;;;1.20;0.80;;;21.00;30.40;;;;;;5054547;28;20441;-65
2021/04/14 08:17:16;;;;;;;1.65;1.00;;;21.10;30.40;;;;;;5053613;28;20409;-64
2021/04/14 08:19:42;;;;;;;1.50;1.00;;;21.10;30.90;;;;;;5053256;28;20758;-63
2021/04/14 08:22:10;;;;;;;1.40;0.80;;;21.20;30.20;;;;;;5054701;28;20385;-65
2021/04/14 08:24:48;;;;;;;1.33;0.80;;;21.20;30.20;;;;;;5054506;28;20404;-65
2021/04/14 08:27:13;;;;;;;1.20;0.82;;;21.20;30.00;;;;;;5053986;28;20411;-64
2021/04/14 08:29:39;;;;;;;1.47;0.90;;;21.20;30.00;;;;;;5054324;28;20417;-65
2021/04/14 08:32:14;;;;;;;2.00;0.90;;;21.20;30.00;;;;;;5054327;28;20390;-64
2021/04/14 08:34:52;;;;;;;1.27;0.80;;;21.30;30.00;;;;;;5054384;28;20753;-64
2021/04/14 08:37:20;;;;;;;1.48;0.82;;;21.30;30.00;;;;;;5053973;28;20404;-64
2021/04/14 08:39:53;;;;;;;1.80;1.00;;;21.30;30.00;;;;;;5054299;28;20421;-64
2021/04/14 08:42:22;;;;;;;1.25;0.80;;;21.40;29.90;;;;;;5054102;28;20389;-64
2021/04/14 08:44:54;;;;;;;1.52;0.98;;;21.40;29.90;;;;;;5053986;28;20389;-64
2021/04/14 08:47:24;;;;;;;1.35;0.80;;;21.40;29.80;;;;;;5053899;28;20417;-63
2021/04/14 08:49:59;;;;;;;1.50;0.90;;;21.40;29.90;;;;;;5054102;28;20393;-65
2021/04/14 08:52:26;;;;;;;1.40;0.90;;;21.40;29.90;;;;;;5054066;28;20473;-65
2021/04/14 08:54:53;;;;;;;1.33;0.80;;;21.40;29.90;;;;;;5053797;28;20814;-60
2021/04/14 08:57:19;;;;;;;1.50;0.85;;;21.40;29.80;;;;;;5052418;28;20392;-63
2021/04/14 08:59:45;;;;;;;1.30;0.80;;;21.50;29.80;;;;;;5052697;28;20405;-64
2021/04/14 09:02:15;;;;;;;1.30;0.80;;;21.50;29.90;;;;;;5052600;28;20386;-64
2021/04/14 09:04:46;;;;;;;1.25;0.80;;;21.50;29.80;;;;;;5053799;28;20389;-65
2021/04/14 09:07:16;;;;;;;1.40;0.70;;;21.50;29.70;;;;;;5053284;28;20385;-64
2021/04/14 09:09:47;;;;;;;1.55;0.90;;;21.50;29.70;;;;;;5053740;28;20389;-64
2021/04/14 09:12:14;;;;;;;1.23;0.82;;;21.50;29.70;;;;;;5053711;28;20401;-64
2021/04/14 09:14:41;;;;;;;1.50;0.80;;;21.50;29.70;;;;;;5053571;28;20400;-65
2021/04/14 09:17:12;;;;;;;1.15;0.70;;;21.50;29.70;;;;;;5052984;28;20390;-64
2021/04/14 09:19:44;;;;;;;1.13;0.70;;;21.50;29.70;;;;;;5053572;28;20404;-65
2021/04/14 09:22:12;;;;;;;1.58;0.77;;;21.50;29.70;;;;;;5053528;28;20385;-64
2021/04/14 09:24:49;;;;;;;1.17;0.80;;;21.50;29.70;;;;;;5053548;28;20527;-65
2021/04/14 09:27:42;;;;;;;1.40;0.80;;;21.50;29.70;;;;;;5052923;28;20397;-65
2021/04/14 09:30:34;;;;;;;1.58;0.80;;;21.50;29.60;;;;;;5053308;28;20466;-65
2021/04/14 09:33:06;;;;;;;1.33;0.82;;;21.50;29.60;;;;;;5052289;28;20400;-61
2021/04/14 09:35:31;;;;;;;1.13;0.80;;;21.50;29.60;;;;;;5053254;28;20416;-65
2021/04/14 09:38:32;;;;;;;1.10;0.70;;;21.50;29.60;;;;;;5052956;28;20870;-65
2021/04/14 09:41:13;;;;;;;1.40;0.68;;;21.50;29.60;;;;;;5053257;28;20789;-65
2021/04/14 09:43:43;;;;;;;1.20;0.80;;;21.50;29.60;;;;;;5052966;28;20488;-65
2021/04/14 09:46:12;;;;;;;1.40;0.80;;;21.50;29.60;;;;;;5052853;28;20493;-64
2021/04/14 09:48:45;;;;;;;1.05;0.70;;;21.50;29.60;;;;;;5052904;28;20478;-65
2021/04/14 09:51:17;;;;;;;1.45;0.80;;;21.50;29.60;;;;;;5052495;28;20386;-65
2021/04/14 09:53:43;;;;;;;1.30;0.70;;;21.60;29.60;;;;;;5052877;28;20943;-65
2021/04/14 09:56:20;;;;;;;1.52;0.75;;;21.50;29.50;;;;;;5052880;28;20397;-65
2021/04/14 09:59:29;;;;;;;1.03;0.70;;;21.50;29.50;;;;;;5052870;28;20452;-65
2021/04/14 10:02:01;;;;;;;1.83;0.75;;;21.50;29.60;;;;;;5051510;28;20394;-64
2021/04/14 10:04:27;;;;;;;1.08;0.60;;;21.50;29.60;;;;;;5052624;28;20393;-64
2021/04/14 10:07:28;;;;;;;1.60;0.70;;;21.50;29.60;;;;;;5052472;28;20741;-63
2021/04/14 10:10:10;;;;;;;1.80;0.75;;;21.50;29.60;;;;;;5040866;28;20416;-63
2021/04/14 10:12:36;;;;;;;1.20;0.70;;;21.50;29.60;;;;;;5052422;28;20397;-64
2021/04/14 10:15:05;;;;;;;1.50;0.80;;;21.50;29.50;;;;;;5051983;28;20393;-59
2021/04/14 10:17:33;;;;;;;1.20;0.70;;;21.50;29.50;;;;;;5052177;28;20535;-64
2021/04/14 10:20:14;;;;;;;1.33;0.80;;;21.50;29.50;;;;;;5052414;28;20427;-64
2021/04/14 10:22:46;;;;;;;1.42;0.75;;;21.60;29.40;;;;;;5052219;28;20738;-65
2021/04/14 10:25:29;;;;;;;1.20;0.70;;;21.60;29.50;;;;;;5051780;28;20376;-64
2021/04/14 10:28:03;;;;;;;1.48;0.85;;;21.70;29.50;;;;;;5052263;28;20472;-65
2021/04/14 10:30:31;;;;;;;1.00;0.68;;;21.70;29.50;;;;;;5052186;28;20381;-65
2021/04/14 10:33:06;;;;;;;2.00;0.60;;;21.70;29.40;;;;;;5052112;28;20560;-65
2021/04/14 10:35:32;;;;;;;1.48;0.70;;;21.70;29.40;;;;;;5050796;28;20437;-64
2021/04/14 10:37:58;;;;;;;1.83;0.70;;;21.70;29.40;;;;;;5050691;28;20405;-65
2021/04/14 10:40:24;;;;;;;1.02;0.57;;;21.80;29.40;;;;;;5051989;28;20392;-64
2021/04/14 10:42:51;;;;;;;0.80;0.60;;;21.70;29.30;;;;;;5052009;28;20373;-64
2021/04/14 10:45:19;;;;;;;1.08;0.70;;;21.70;29.30;;;;;;5051224;28;20401;-64
2021/04/14 10:47:48;;;;;;;1.45;0.52;;;21.70;29.40;;;;;;5051444;28;20385;-64
2021/04/14 10:50:27;;;;;;;0.93;0.50;;;21.70;29.40;;;;;;5050130;28;20390;-64
2021/04/14 10:53:04;;;;;;;1.20;0.60;;;21.70;29.40;;;;;;5050406;28;20919;-65
2021/04/14 10:55:39;;;;;;;1.17;0.60;;;21.60;29.40;;;;;;5051743;28;20381;-65
2021/04/14 10:58:07;;;;;;;1.60;0.70;;;21.60;29.30;;;;;;5051730;28;20470;-65
2021/04/14 11:00:39;;;;;;;1.15;0.63;;;21.60;29.30;;;;;;5051538;28;20440;-64
2021/04/14 11:03:08;;;;;;;0.98;0.60;;;21.60;29.30;;;;;;5051246;28;20400;-60
2021/04/14 11:05:36;;;;;;;1.20;0.60;;;21.60;29.40;;;;;;5051579;28;20413;-65
2021/04/14 11:08:04;;;;;;;0.90;0.50;;;21.60;29.30;;;;;;5051658;28;20394;-65
2021/04/14 11:10:34;;;;;;;1.30;0.50;;;21.60;29.30;;;;;;5050393;28;20728;-64
2021/04/14 11:13:01;;;;;;;1.63;0.70;;;21.50;29.40;;;;;;5051411;28;20488;-63
2021/04/14 11:15:34;;;;;;;0.95;0.60;;;21.60;29.40;;;;;;5051129;28;20488;-65
2021/04/14 11:18:05;;;;;;;1.33;0.60;;;21.60;29.30;;;;;;5051278;28;20413;-65
2021/04/14 11:20:57;;;;;;;1.13;0.70;;;21.70;29.20;;;;;;5050850;28;20630;-65
2021/04/14 11:23:28;;;;;;;1.20;0.70;;;21.70;29.20;;;;;;5049600;28;20758;-65
2021/04/14 11:26:13;;;;;;;1.38;0.65;;;21.80;29.20;;;;;;5051387;28;20461;-65
2021/04/14 11:28:54;;;;;;;1.30;0.63;;;21.80;29.10;;;;;;5051641;28;20443;-64
2021/04/14 11:31:34;;;;;;;1.27;0.57;;;21.80;29.10;;;;;;5050763;28;20488;-65
2021/04/14 11:34:11;;;;;;;0.93;0.50;;;21.90;29.10;;;;;;5051299;28;20420;-64
2021/04/14 11:36:38;;;;;;;1.10;0.70;;;21.90;29.00;;;;;;5051437;28;20405;-63
2021/04/14 11:39:04;;;;;;;0.77;0.43;;;21.90;29.00;;;;;;5050967;28;20496;-63
2021/04/14 11:41:33;;;;;;;1.92;0.60;;;21.90;29.00;;;;;;5050900;28;20488;-64
2021/04/14 11:44:00;;;;;;;0.75;0.50;;;21.90;29.00;;;;;;5051275;28;20419;-63
2021/04/14 11:46:33;;;;;;;1.08;0.50;;;21.90;29.00;;;;;;5051006;28;20492;-64
2021/04/14 11:49:02;;;;;;;0.95;0.47;;;21.90;29.00;;;;;;5051177;28;20413;-64
2021/04/14 11:51:32;;;;;;;0.80;0.40;;;21.90;29.00;;;;;;5050809;28;20385;-64
2021/04/14 11:54:15;;;;;;;1.85;0.60;;;21.90;29.00;;;;;;5046381;28;20394;-59
2021/04/14 11:56:45;;;;;;;1.52;0.60;;;21.90;29.00;;;;;;5041947;28;20404;-63
2021/04/14 11:59:33;;;;;;;1.17;0.50;;;21.90;28.90;;;;;;5035363;28;20470;-64
2021/04/14 12:02:11;;;;;;;1.70;0.60;;;21.80;28.90;;;;;;5032469;28;20918;-64
2021/04/14 12:04:38;;;;;;;2.60;0.50;;;21.80;29.00;;;;;;5037070;28;20865;-59
2021/04/14 12:07:04;;;;;;;2.30;0.50;;;21.80;29.00;;;;;;5050538;28;20385;-63
2021/04/14 12:09:30;;;;;;;1.50;0.52;;;21.70;29.10;;;;;;5050564;28;20400;-63
2021/04/14 12:11:58;;;;;;;1.70;0.50;;;21.70;29.10;;;;;;5050908;28;20862;-64
2021/04/14 12:14:25;;;;;;;2.00;0.63;;;21.70;29.20;;;;;;5045013;28;20419;-60
2021/04/14 12:16:50;;;;;;;2.53;0.70;;;21.70;29.20;;;;;;5039704;28;20387;-65
2021/04/14 12:19:16;;;;;;;1.37;0.50;;;21.70;29.20;;;;;;5029738;28;20417;-65
2021/04/14 12:21:41;;;;;;;1.30;0.50;;;21.70;29.20;;;;;;5029797;28;20402;-64
2021/04/14 12:24:07;;;;;;;1.80;0.60;;;21.70;29.20;;;;;;5031037;28;20425;-65
2021/04/14 12:26:33;;;;;;;1.90;0.52;;;21.70;29.20;;;;;;5030919;28;20390;-64
2021/04/14 12:28:58;;;;;;;1.57;0.50;;;21.70;29.30;;;;;;5030959;28;20395;-65
2021/04/14 12:31:24;;;;;;;1.98;0.50;;;21.60;29.20;;;;;;5031258;28;21300;-65
2021/04/14 12:33:50;;;;;;;1.87;0.50;;;21.60;29.30;;;;;;5034422;28;20763;-65
2021/04/14 12:36:15;;;;;;;1.15;0.50;;;21.70;29.30;;;;;;5034322;28;20395;-65
2021/04/14 12:38:42;;;;;;;2.43;0.60;;;21.50;29.40;;;;;;5034137;28;20506;-65
2021/04/14 12:41:07;;;;;;;2.43;0.80;;;21.60;29.30;;;;;;5034059;28;20781;-65
2021/04/14 12:43:33;;;;;;;1.70;0.60;;;21.60;29.30;;;;;;5034008;28;20482;-64
2021/04/14 12:45:59;;;;;;;1.27;0.50;;;21.70;29.40;;;;;;5034078;28;20413;-65
2021/04/14 12:48:27;;;;;;;1.57;0.80;;;21.70;29.30;;;;;;5032763;28;20453;-65
2021/04/14 12:51:24;;;;;;;1.15;0.70;;;21.70;29.20;;;;;;5034108;28;20423;-66
2021/04/14 12:54:12;;;;;;;1.23;0.80;;;21.60;29.20;;;;;;5033931;28;20399;-66
2021/04/14 12:56:59;;;;;;;2.40;0.80;;;21.60;29.40;;;;;;5034049;28;20421;-66
2021/04/14 12:59:37;;;;;;;2.00;0.90;;;21.60;29.40;;;;;;5032936;28;20419;-65
2021/04/14 13:02:10;;;;;;;2.47;0.85;;;21.70;29.40;;;;;;5033835;28;20445;-64
2021/04/14 13:04:56;;;;;;;2.28;0.95;;;21.70;29.40;;;;;;5033961;28;20879;-64
2021/04/14 13:08:11;;;;;;;2.40;0.80;;;21.70;29.50;;;;;;5033603;28;20403;-63